sensor_id;sensor_type;location;lat;lon;timestamp;P1;durP1;ratioP1;P2;durP2;ratioP2
505;SDS011;551;48.524;9.056;2023-03-12T00:01:09;5.97;;;3.67;;
505;SDS011;551;48.524;9.056;2023-03-12T00:03:38;9.13;;;4.57;;
505;SDS011;551;48.524;9.056;2023-03-12T00:06:04;6.07;;;3.67;;
505;SDS011;551;48.524;9.056;2023-03-12T00:08:30;6.07;;;3.23;;
505;SDS011;551;48.524;9.056;2023-03-12T00:10:56;4.07;;;3.40;;
505;SDS011;551;48.524;9.056;2023-03-12T00:13:21;5.30;;;3.93;;
505;SDS011;551;48.524;9.056;2023-03-12T00:15:47;5.97;;;3.53;;
505;SDS011;551;48.524;9.056;2023-03-12T00:18:12;5.80;;;3.50;;
505;SDS011;551;48.524;9.056;2023-03-12T00:20:38;6.30;;;4.37;;
505;SDS011;551;48.524;9.056;2023-03-12T00:23:03;6.90;;;4.00;;
505;SDS011;551;48.524;9.056;2023-03-12T00:25:29;8.80;;;3.80;;
505;SDS011;551;48.524;9.056;2023-03-12T00:27:54;5.43;;;3.20;;
505;SDS011;551;48.524;9.056;2023-03-12T00:30:20;4.40;;;4.00;;
505;SDS011;551;48.524;9.056;2023-03-12T00:32:45;5.33;;;3.40;;
505;SDS011;551;48.524;9.056;2023-03-12T00:35:11;5.57;;;3.60;;
505;SDS011;551;48.524;9.056;2023-03-12T00:37:37;8.47;;;4.53;;
505;SDS011;551;48.524;9.056;2023-03-12T00:40:03;7.17;;;4.03;;
505;SDS011;551;48.524;9.056;2023-03-12T00:42:30;9.83;;;4.50;;
505;SDS011;551;48.524;9.056;2023-03-12T00:44:58;6.50;;;3.60;;
505;SDS011;551;48.524;9.056;2023-03-12T00:47:24;7.60;;;3.73;;
505;SDS011;551;48.524;9.056;2023-03-12T00:49:49;7.80;;;3.90;;
505;SDS011;551;48.524;9.056;2023-03-12T00:52:15;7.27;;;3.60;;
505;SDS011;551;48.524;9.056;2023-03-12T00:54:41;7.00;;;4.00;;
505;SDS011;551;48.524;9.056;2023-03-12T00:57:06;11.13;;;3.90;;
505;SDS011;551;48.524;9.056;2023-03-12T00:59:31;6.83;;;3.93;;
505;SDS011;551;48.524;9.056;2023-03-12T01:01:57;5.40;;;4.03;;
505;SDS011;551;48.524;9.056;2023-03-12T01:04:23;6.33;;;4.67;;
505;SDS011;551;48.524;9.056;2023-03-12T01:06:49;9.60;;;4.30;;
505;SDS011;551;48.524;9.056;2023-03-12T01:09:14;5.03;;;3.67;;
505;SDS011;551;48.524;9.056;2023-03-12T01:11:40;8.77;;;4.30;;
505;SDS011;551;48.524;9.056;2023-03-12T01:14:06;8.30;;;4.67;;
505;SDS011;551;48.524;9.056;2023-03-12T01:16:32;6.03;;;3.70;;
505;SDS011;551;48.524;9.056;2023-03-12T01:18:59;9.77;;;4.20;;
505;SDS011;551;48.524;9.056;2023-03-12T01:21:27;6.63;;;4.30;;
505;SDS011;551;48.524;9.056;2023-03-12T01:23:54;5.30;;;4.07;;
505;SDS011;551;48.524;9.056;2023-03-12T01:26:20;9.63;;;4.00;;
505;SDS011;551;48.524;9.056;2023-03-12T01:28:46;8.43;;;4.67;;
505;SDS011;551;48.524;9.056;2023-03-12T01:31:13;8.30;;;5.87;;
505;SDS011;551;48.524;9.056;2023-03-12T01:33:39;11.43;;;4.23;;
505;SDS011;551;48.524;9.056;2023-03-12T01:36:12;7.23;;;3.60;;
505;SDS011;551;48.524;9.056;2023-03-12T01:38:42;6.10;;;3.47;;
505;SDS011;551;48.524;9.056;2023-03-12T01:41:08;5.63;;;4.40;;
505;SDS011;551;48.524;9.056;2023-03-12T01:43:34;5.80;;;4.00;;
505;SDS011;551;48.524;9.056;2023-03-12T01:48:41;9.53;;;4.70;;
505;SDS011;551;48.524;9.056;2023-03-12T01:51:09;7.33;;;3.97;;
505;SDS011;551;48.524;9.056;2023-03-12T01:53:37;6.63;;;4.33;;
505;SDS011;551;48.524;9.056;2023-03-12T01:56:04;12.20;;;4.80;;
505;SDS011;551;48.524;9.056;2023-03-12T01:58:31;6.87;;;4.50;;
505;SDS011;551;48.524;9.056;2023-03-12T02:01:00;6.80;;;4.50;;
505;SDS011;551;48.524;9.056;2023-03-12T02:03:25;5.37;;;4.30;;
505;SDS011;551;48.524;9.056;2023-03-12T02:08:24;6.07;;;4.50;;
505;SDS011;551;48.524;9.056;2023-03-12T02:10:50;6.73;;;4.70;;
505;SDS011;551;48.524;9.056;2023-03-12T02:13:15;6.67;;;4.43;;
505;SDS011;551;48.524;9.056;2023-03-12T02:15:41;5.60;;;3.93;;
505;SDS011;551;48.524;9.056;2023-03-12T02:18:08;5.10;;;4.00;;
505;SDS011;551;48.524;9.056;2023-03-12T02:20:47;6.17;;;4.80;;
505;SDS011;551;48.524;9.056;2023-03-12T02:25:51;7.07;;;4.80;;
505;SDS011;551;48.524;9.056;2023-03-12T02:28:19;7.23;;;4.53;;
505;SDS011;551;48.524;9.056;2023-03-12T02:30:47;9.90;;;5.10;;
505;SDS011;551;48.524;9.056;2023-03-12T02:33:15;14.60;;;4.90;;
505;SDS011;551;48.524;9.056;2023-03-12T02:35:41;9.13;;;4.13;;
505;SDS011;551;48.524;9.056;2023-03-12T02:38:30;8.03;;;4.40;;
505;SDS011;551;48.524;9.056;2023-03-12T02:40:57;6.00;;;4.20;;
505;SDS011;551;48.524;9.056;2023-03-12T02:43:27;6.97;;;4.87;;
505;SDS011;551;48.524;9.056;2023-03-12T02:45:54;10.90;;;5.60;;
505;SDS011;551;48.524;9.056;2023-03-12T02:48:19;7.03;;;4.50;;
505;SDS011;551;48.524;9.056;2023-03-12T02:50:45;6.83;;;5.30;;
505;SDS011;551;48.524;9.056;2023-03-12T02:53:11;8.67;;;5.13;;
505;SDS011;551;48.524;9.056;2023-03-12T02:55:36;7.60;;;5.10;;
505;SDS011;551;48.524;9.056;2023-03-12T02:58:02;10.53;;;5.50;;
505;SDS011;551;48.524;9.056;2023-03-12T03:00:28;8.50;;;4.80;;
505;SDS011;551;48.524;9.056;2023-03-12T03:02:57;9.27;;;5.17;;
505;SDS011;551;48.524;9.056;2023-03-12T03:05:23;9.90;;;5.87;;
505;SDS011;551;48.524;9.056;2023-03-12T03:07:48;7.07;;;5.73;;
505;SDS011;551;48.524;9.056;2023-03-12T03:10:14;8.17;;;5.73;;
505;SDS011;551;48.524;9.056;2023-03-12T03:12:41;6.90;;;3.60;;
505;SDS011;551;48.524;9.056;2023-03-12T03:15:07;2.93;;;2.63;;
505;SDS011;551;48.524;9.056;2023-03-12T03:17:33;5.20;;;3.50;;
505;SDS011;551;48.524;9.056;2023-03-12T03:19:58;2.87;;;2.67;;
505;SDS011;551;48.524;9.056;2023-03-12T03:22:24;5.90;;;4.00;;
505;SDS011;551;48.524;9.056;2023-03-12T03:24:49;4.53;;;2.90;;
505;SDS011;551;48.524;9.056;2023-03-12T03:27:16;4.60;;;3.20;;
505;SDS011;551;48.524;9.056;2023-03-12T03:29:43;7.00;;;3.30;;
505;SDS011;551;48.524;9.056;2023-03-12T03:32:10;5.53;;;3.10;;
505;SDS011;551;48.524;9.056;2023-03-12T03:34:36;5.90;;;3.50;;
505;SDS011;551;48.524;9.056;2023-03-12T03:37:02;4.43;;;3.50;;
505;SDS011;551;48.524;9.056;2023-03-12T03:39:28;4.47;;;3.60;;
505;SDS011;551;48.524;9.056;2023-03-12T03:41:54;5.20;;;3.40;;
505;SDS011;551;48.524;9.056;2023-03-12T03:44:19;3.00;;;2.70;;
505;SDS011;551;48.524;9.056;2023-03-12T03:46:46;6.10;;;3.80;;
505;SDS011;551;48.524;9.056;2023-03-12T03:49:13;5.83;;;3.30;;
505;SDS011;551;48.524;9.056;2023-03-12T03:51:39;7.70;;;3.33;;
505;SDS011;551;48.524;9.056;2023-03-12T03:54:06;6.50;;;3.77;;
505;SDS011;551;48.524;9.056;2023-03-12T03:56:32;8.27;;;3.70;;
505;SDS011;551;48.524;9.056;2023-03-12T03:58:58;5.17;;;3.23;;
505;SDS011;551;48.524;9.056;2023-03-12T04:01:25;5.83;;;3.53;;
505;SDS011;551;48.524;9.056;2023-03-12T04:03:51;4.77;;;3.40;;
505;SDS011;551;48.524;9.056;2023-03-12T04:06:17;8.37;;;3.57;;
505;SDS011;551;48.524;9.056;2023-03-12T04:08:42;6.30;;;3.47;;
505;SDS011;551;48.524;9.056;2023-03-12T04:11:12;5.03;;;3.37;;
505;SDS011;551;48.524;9.056;2023-03-12T04:13:39;10.03;;;3.70;;
505;SDS011;551;48.524;9.056;2023-03-12T04:16:05;7.53;;;3.17;;
505;SDS011;551;48.524;9.056;2023-03-12T04:18:31;6.23;;;3.43;;
505;SDS011;551;48.524;9.056;2023-03-12T04:20:57;7.73;;;3.77;;
505;SDS011;551;48.524;9.056;2023-03-12T04:23:23;5.27;;;3.20;;
505;SDS011;551;48.524;9.056;2023-03-12T04:25:48;6.33;;;3.80;;
505;SDS011;551;48.524;9.056;2023-03-12T04:28:14;10.57;;;4.53;;
505;SDS011;551;48.524;9.056;2023-03-12T04:30:40;8.80;;;4.10;;
505;SDS011;551;48.524;9.056;2023-03-12T04:33:05;11.70;;;4.10;;
505;SDS011;551;48.524;9.056;2023-03-12T04:35:31;11.17;;;4.17;;
505;SDS011;551;48.524;9.056;2023-03-12T04:37:57;13.40;;;4.60;;
505;SDS011;551;48.524;9.056;2023-03-12T04:40:25;7.80;;;4.73;;
505;SDS011;551;48.524;9.056;2023-03-12T04:42:50;7.10;;;4.67;;
505;SDS011;551;48.524;9.056;2023-03-12T04:45:16;7.50;;;5.17;;
505;SDS011;551;48.524;9.056;2023-03-12T04:47:41;6.47;;;5.60;;
505;SDS011;551;48.524;9.056;2023-03-12T04:50:08;5.50;;;4.93;;
505;SDS011;551;48.524;9.056;2023-03-12T04:52:34;5.30;;;4.13;;
505;SDS011;551;48.524;9.056;2023-03-12T04:54:59;5.97;;;3.63;;
505;SDS011;551;48.524;9.056;2023-03-12T04:57:25;8.53;;;4.23;;
505;SDS011;551;48.524;9.056;2023-03-12T04:59:50;5.97;;;3.47;;
505;SDS011;551;48.524;9.056;2023-03-12T05:02:16;6.10;;;3.53;;
505;SDS011;551;48.524;9.056;2023-03-12T05:04:42;6.30;;;4.50;;
505;SDS011;551;48.524;9.056;2023-03-12T05:07:07;6.47;;;4.90;;
505;SDS011;551;48.524;9.056;2023-03-12T05:09:33;6.60;;;3.73;;
505;SDS011;551;48.524;9.056;2023-03-12T05:11:58;6.80;;;4.60;;
505;SDS011;551;48.524;9.056;2023-03-12T05:14:24;5.60;;;3.83;;
505;SDS011;551;48.524;9.056;2023-03-12T05:16:49;7.30;;;4.47;;
505;SDS011;551;48.524;9.056;2023-03-12T05:19:15;6.40;;;4.20;;
505;SDS011;551;48.524;9.056;2023-03-12T05:21:41;4.53;;;4.10;;
505;SDS011;551;48.524;9.056;2023-03-12T05:24:07;7.40;;;4.83;;
505;SDS011;551;48.524;9.056;2023-03-12T05:26:33;4.90;;;4.30;;
505;SDS011;551;48.524;9.056;2023-03-12T05:28:59;7.40;;;4.87;;
505;SDS011;551;48.524;9.056;2023-03-12T05:31:25;8.40;;;4.77;;
505;SDS011;551;48.524;9.056;2023-03-12T05:33:51;6.33;;;3.90;;
505;SDS011;551;48.524;9.056;2023-03-12T05:36:17;8.73;;;4.03;;
505;SDS011;551;48.524;9.056;2023-03-12T05:38:43;6.10;;;4.90;;
505;SDS011;551;48.524;9.056;2023-03-12T05:41:09;5.90;;;4.60;;
505;SDS011;551;48.524;9.056;2023-03-12T05:43:45;6.47;;;5.63;;
505;SDS011;551;48.524;9.056;2023-03-12T05:46:11;11.20;;;5.93;;
505;SDS011;551;48.524;9.056;2023-03-12T05:48:37;12.30;;;6.90;;
505;SDS011;551;48.524;9.056;2023-03-12T05:51:03;10.40;;;5.87;;
505;SDS011;551;48.524;9.056;2023-03-12T05:53:28;12.87;;;5.80;;
505;SDS011;551;48.524;9.056;2023-03-12T05:55:54;9.23;;;6.43;;
505;SDS011;551;48.524;9.056;2023-03-12T05:58:19;9.93;;;5.73;;
505;SDS011;551;48.524;9.056;2023-03-12T06:00:45;13.90;;;5.53;;
505;SDS011;551;48.524;9.056;2023-03-12T06:03:12;9.27;;;5.60;;
505;SDS011;551;48.524;9.056;2023-03-12T06:05:38;7.93;;;5.80;;
505;SDS011;551;48.524;9.056;2023-03-12T06:08:03;8.43;;;5.47;;
505;SDS011;551;48.524;9.056;2023-03-12T06:10:30;9.43;;;5.60;;
505;SDS011;551;48.524;9.056;2023-03-12T06:12:55;8.60;;;5.53;;
505;SDS011;551;48.524;9.056;2023-03-12T06:15:21;9.73;;;6.07;;
505;SDS011;551;48.524;9.056;2023-03-12T06:17:47;7.77;;;6.10;;
505;SDS011;551;48.524;9.056;2023-03-12T06:20:12;10.60;;;5.97;;
505;SDS011;551;48.524;9.056;2023-03-12T06:22:38;9.07;;;5.70;;
505;SDS011;551;48.524;9.056;2023-03-12T06:25:04;11.03;;;5.60;;
505;SDS011;551;48.524;9.056;2023-03-12T06:27:30;11.57;;;5.80;;
505;SDS011;551;48.524;9.056;2023-03-12T06:29:55;10.33;;;5.33;;
505;SDS011;551;48.524;9.056;2023-03-12T06:32:21;6.13;;;5.13;;
505;SDS011;551;48.524;9.056;2023-03-12T06:34:47;7.93;;;5.70;;
505;SDS011;551;48.524;9.056;2023-03-12T06:37:12;14.03;;;5.83;;
505;SDS011;551;48.524;9.056;2023-03-12T06:39:38;8.57;;;5.27;;
505;SDS011;551;48.524;9.056;2023-03-12T06:42:04;10.90;;;5.37;;
505;SDS011;551;48.524;9.056;2023-03-12T06:44:30;10.60;;;5.90;;
505;SDS011;551;48.524;9.056;2023-03-12T06:46:56;6.87;;;5.73;;
505;SDS011;551;48.524;9.056;2023-03-12T06:49:21;6.77;;;5.70;;
505;SDS011;551;48.524;9.056;2023-03-12T06:51:47;6.50;;;5.80;;
505;SDS011;551;48.524;9.056;2023-03-12T06:54:13;7.53;;;5.30;;
505;SDS011;551;48.524;9.056;2023-03-12T06:56:38;15.90;;;6.20;;
505;SDS011;551;48.524;9.056;2023-03-12T06:59:04;9.50;;;5.90;;
505;SDS011;551;48.524;9.056;2023-03-12T07:01:30;7.37;;;5.33;;
505;SDS011;551;48.524;9.056;2023-03-12T07:03:55;9.97;;;5.87;;
505;SDS011;551;48.524;9.056;2023-03-12T07:06:21;21.23;;;5.63;;
505;SDS011;551;48.524;9.056;2023-03-12T07:08:48;7.17;;;6.00;;
505;SDS011;551;48.524;9.056;2023-03-12T07:11:13;13.17;;;5.93;;
505;SDS011;551;48.524;9.056;2023-03-12T07:13:39;7.53;;;5.77;;
505;SDS011;551;48.524;9.056;2023-03-12T07:16:05;7.90;;;5.40;;
505;SDS011;551;48.524;9.056;2023-03-12T07:18:31;6.60;;;5.80;;
505;SDS011;551;48.524;9.056;2023-03-12T07:20:57;8.70;;;6.20;;
505;SDS011;551;48.524;9.056;2023-03-12T07:23:23;8.00;;;5.77;;
505;SDS011;551;48.524;9.056;2023-03-12T07:25:49;10.47;;;5.70;;
505;SDS011;551;48.524;9.056;2023-03-12T07:28:15;7.17;;;5.90;;
505;SDS011;551;48.524;9.056;2023-03-12T07:30:41;13.00;;;5.70;;
505;SDS011;551;48.524;9.056;2023-03-12T07:33:10;11.30;;;6.73;;
505;SDS011;551;48.524;9.056;2023-03-12T07:35:39;7.30;;;6.40;;
505;SDS011;551;48.524;9.056;2023-03-12T07:38:05;8.00;;;6.47;;
505;SDS011;551;48.524;9.056;2023-03-12T07:40:31;10.13;;;6.53;;
505;SDS011;551;48.524;9.056;2023-03-12T07:42:56;11.93;;;7.77;;
505;SDS011;551;48.524;9.056;2023-03-12T07:45:22;16.13;;;6.43;;
505;SDS011;551;48.524;9.056;2023-03-12T07:47:48;5.97;;;5.37;;
505;SDS011;551;48.524;9.056;2023-03-12T07:50:14;9.50;;;6.50;;
505;SDS011;551;48.524;9.056;2023-03-12T07:52:39;9.37;;;6.03;;
505;SDS011;551;48.524;9.056;2023-03-12T07:55:05;15.10;;;6.07;;
505;SDS011;551;48.524;9.056;2023-03-12T07:57:31;9.07;;;6.00;;
505;SDS011;551;48.524;9.056;2023-03-12T07:59:57;7.47;;;6.00;;
505;SDS011;551;48.524;9.056;2023-03-12T08:02:22;6.87;;;5.93;;
505;SDS011;551;48.524;9.056;2023-03-12T08:04:48;6.67;;;4.97;;
505;SDS011;551;48.524;9.056;2023-03-12T08:07:13;7.20;;;5.60;;
505;SDS011;551;48.524;9.056;2023-03-12T08:09:39;8.17;;;5.60;;
505;SDS011;551;48.524;9.056;2023-03-12T08:12:05;9.20;;;5.73;;
505;SDS011;551;48.524;9.056;2023-03-12T08:14:31;11.13;;;6.10;;
505;SDS011;551;48.524;9.056;2023-03-12T08:16:58;8.03;;;5.80;;
505;SDS011;551;48.524;9.056;2023-03-12T08:19:23;8.37;;;5.87;;
505;SDS011;551;48.524;9.056;2023-03-12T08:21:50;7.40;;;5.23;;
505;SDS011;551;48.524;9.056;2023-03-12T08:24:19;7.70;;;5.30;;
505;SDS011;551;48.524;9.056;2023-03-12T08:26:45;12.27;;;5.40;;
505;SDS011;551;48.524;9.056;2023-03-12T08:29:11;7.17;;;5.20;;
505;SDS011;551;48.524;9.056;2023-03-12T08:31:37;8.27;;;4.83;;
505;SDS011;551;48.524;9.056;2023-03-12T08:34:03;7.20;;;4.63;;
505;SDS011;551;48.524;9.056;2023-03-12T08:36:28;8.80;;;5.43;;
505;SDS011;551;48.524;9.056;2023-03-12T08:38:54;8.10;;;5.17;;
505;SDS011;551;48.524;9.056;2023-03-12T08:41:19;6.03;;;4.97;;
505;SDS011;551;48.524;9.056;2023-03-12T08:43:45;6.60;;;5.20;;
505;SDS011;551;48.524;9.056;2023-03-12T08:46:11;5.83;;;5.00;;
505;SDS011;551;48.524;9.056;2023-03-12T08:48:37;7.23;;;5.03;;
505;SDS011;551;48.524;9.056;2023-03-12T08:51:03;10.77;;;5.83;;
505;SDS011;551;48.524;9.056;2023-03-12T08:53:31;9.97;;;6.33;;
505;SDS011;551;48.524;9.056;2023-03-12T08:55:58;11.30;;;6.10;;
505;SDS011;551;48.524;9.056;2023-03-12T08:58:24;6.90;;;5.73;;
505;SDS011;551;48.524;9.056;2023-03-12T09:00:50;10.17;;;6.43;;
505;SDS011;551;48.524;9.056;2023-03-12T09:03:16;12.60;;;9.27;;
505;SDS011;551;48.524;9.056;2023-03-12T09:05:42;9.97;;;8.13;;
505;SDS011;551;48.524;9.056;2023-03-12T09:08:08;9.80;;;6.30;;
505;SDS011;551;48.524;9.056;2023-03-12T09:10:35;11.20;;;7.33;;
505;SDS011;551;48.524;9.056;2023-03-12T09:13:01;8.37;;;6.77;;
505;SDS011;551;48.524;9.056;2023-03-12T09:15:28;12.30;;;6.57;;
505;SDS011;551;48.524;9.056;2023-03-12T09:17:54;12.27;;;7.30;;
505;SDS011;551;48.524;9.056;2023-03-12T09:20:20;10.23;;;7.90;;
505;SDS011;551;48.524;9.056;2023-03-12T09:22:47;8.57;;;7.33;;
505;SDS011;551;48.524;9.056;2023-03-12T09:25:13;6.10;;;5.50;;
505;SDS011;551;48.524;9.056;2023-03-12T09:27:40;11.37;;;7.40;;
505;SDS011;551;48.524;9.056;2023-03-12T09:30:08;10.33;;;6.60;;
505;SDS011;551;48.524;9.056;2023-03-12T09:32:37;7.90;;;6.47;;
505;SDS011;551;48.524;9.056;2023-03-12T09:35:02;11.50;;;7.30;;
505;SDS011;551;48.524;9.056;2023-03-12T09:37:29;13.93;;;6.77;;
505;SDS011;551;48.524;9.056;2023-03-12T09:39:56;8.70;;;6.30;;
505;SDS011;551;48.524;9.056;2023-03-12T09:42:29;6.57;;;5.70;;
505;SDS011;551;48.524;9.056;2023-03-12T09:45:16;10.57;;;6.60;;
505;SDS011;551;48.524;9.056;2023-03-12T09:47:49;8.23;;;5.87;;
505;SDS011;551;48.524;9.056;2023-03-12T09:50:22;6.63;;;5.47;;
505;SDS011;551;48.524;9.056;2023-03-12T09:52:52;9.53;;;6.10;;
505;SDS011;551;48.524;9.056;2023-03-12T09:55:22;14.23;;;8.30;;
505;SDS011;551;48.524;9.056;2023-03-12T09:57:49;9.00;;;6.17;;
505;SDS011;551;48.524;9.056;2023-03-12T10:00:19;10.80;;;6.60;;
505;SDS011;551;48.524;9.056;2023-03-12T10:02:58;10.10;;;6.20;;
505;SDS011;551;48.524;9.056;2023-03-12T10:05:46;7.37;;;6.33;;
505;SDS011;551;48.524;9.056;2023-03-12T10:08:32;10.73;;;5.87;;
505;SDS011;551;48.524;9.056;2023-03-12T10:11:08;8.67;;;5.80;;
505;SDS011;551;48.524;9.056;2023-03-12T10:14:05;6.70;;;6.00;;
505;SDS011;551;48.524;9.056;2023-03-12T10:19:32;6.80;;;5.40;;
505;SDS011;551;48.524;9.056;2023-03-12T10:22:23;7.00;;;5.70;;
505;SDS011;551;48.524;9.056;2023-03-12T10:30:45;6.67;;;5.40;;
505;SDS011;551;48.524;9.056;2023-03-12T10:33:16;9.77;;;4.90;;
505;SDS011;551;48.524;9.056;2023-03-12T10:35:43;5.03;;;4.60;;
505;SDS011;551;48.524;9.056;2023-03-12T10:38:28;6.00;;;4.87;;
505;SDS011;551;48.524;9.056;2023-03-12T10:40:54;7.93;;;4.67;;
505;SDS011;551;48.524;9.056;2023-03-12T10:43:20;7.37;;;4.53;;
505;SDS011;551;48.524;9.056;2023-03-12T10:48:29;2.17;;;1.80;;
505;SDS011;551;48.524;9.056;2023-03-12T10:51:02;5.73;;;1.87;;
505;SDS011;551;48.524;9.056;2023-03-12T10:53:41;4.30;;;1.80;;
505;SDS011;551;48.524;9.056;2023-03-12T10:56:18;3.23;;;1.80;;
505;SDS011;551;48.524;9.056;2023-03-12T10:58:46;6.63;;;1.90;;
505;SDS011;551;48.524;9.056;2023-03-12T11:03:38;6.00;;;2.23;;
505;SDS011;551;48.524;9.056;2023-03-12T11:06:04;3.50;;;2.30;;
505;SDS011;551;48.524;9.056;2023-03-12T11:08:35;4.60;;;1.87;;
505;SDS011;551;48.524;9.056;2023-03-12T11:11:01;6.70;;;2.53;;
505;SDS011;551;48.524;9.056;2023-03-12T11:13:33;4.70;;;2.60;;
505;SDS011;551;48.524;9.056;2023-03-12T11:18:52;4.73;;;2.07;;
505;SDS011;551;48.524;9.056;2023-03-12T11:21:23;4.90;;;2.07;;
505;SDS011;551;48.524;9.056;2023-03-12T11:26:22;4.33;;;2.30;;
505;SDS011;551;48.524;9.056;2023-03-12T11:28:50;5.20;;;1.60;;
505;SDS011;551;48.524;9.056;2023-03-12T11:31:27;3.30;;;1.90;;
505;SDS011;551;48.524;9.056;2023-03-12T11:34:06;4.40;;;2.00;;
505;SDS011;551;48.524;9.056;2023-03-12T11:47:54;8.13;;;1.90;;
505;SDS011;551;48.524;9.056;2023-03-12T11:50:44;8.07;;;2.37;;
505;SDS011;551;48.524;9.056;2023-03-12T12:05:05;6.67;;;1.90;;
505;SDS011;551;48.524;9.056;2023-03-12T12:10:51;4.03;;;2.50;;
505;SDS011;551;48.524;9.056;2023-03-12T12:19:38;5.07;;;2.33;;
505;SDS011;551;48.524;9.056;2023-03-12T12:22:26;6.67;;;3.50;;
505;SDS011;551;48.524;9.056;2023-03-12T12:25:27;7.50;;;2.10;;
505;SDS011;551;48.524;9.056;2023-03-12T12:33:40;2.90;;;1.80;;
505;SDS011;551;48.524;9.056;2023-03-12T12:36:34;7.13;;;1.97;;
505;SDS011;551;48.524;9.056;2023-03-12T12:41:46;5.57;;;2.20;;
505;SDS011;551;48.524;9.056;2023-03-12T12:44:17;3.37;;;1.70;;
505;SDS011;551;48.524;9.056;2023-03-12T12:46:59;5.80;;;2.33;;
505;SDS011;551;48.524;9.056;2023-03-12T12:52:00;7.90;;;2.20;;
505;SDS011;551;48.524;9.056;2023-03-12T12:54:35;4.37;;;1.90;;
505;SDS011;551;48.524;9.056;2023-03-12T13:02:36;2.90;;;1.77;;
505;SDS011;551;48.524;9.056;2023-03-12T13:05:12;3.07;;;1.87;;
505;SDS011;551;48.524;9.056;2023-03-12T13:08:00;1.93;;;1.70;;
505;SDS011;551;48.524;9.056;2023-03-12T13:13:07;5.60;;;1.83;;
505;SDS011;551;48.524;9.056;2023-03-12T13:15:42;4.23;;;1.70;;
505;SDS011;551;48.524;9.056;2023-03-12T13:18:27;4.27;;;1.97;;
505;SDS011;551;48.524;9.056;2023-03-12T13:23:54;4.60;;;1.77;;
505;SDS011;551;48.524;9.056;2023-03-12T13:26:57;6.57;;;2.10;;
505;SDS011;551;48.524;9.056;2023-03-12T13:29:57;4.37;;;1.87;;
505;SDS011;551;48.524;9.056;2023-03-12T13:43:02;4.47;;;1.80;;
505;SDS011;551;48.524;9.056;2023-03-12T13:45:30;6.13;;;1.87;;
505;SDS011;551;48.524;9.056;2023-03-12T13:47:57;2.33;;;1.93;;
505;SDS011;551;48.524;9.056;2023-03-12T13:50:25;4.80;;;1.90;;
505;SDS011;551;48.524;9.056;2023-03-12T13:53:07;2.33;;;1.90;;
505;SDS011;551;48.524;9.056;2023-03-12T13:55:44;4.93;;;2.00;;
505;SDS011;551;48.524;9.056;2023-03-12T13:58:15;5.20;;;1.80;;
505;SDS011;551;48.524;9.056;2023-03-12T14:00:55;4.17;;;1.40;;
505;SDS011;551;48.524;9.056;2023-03-12T14:03:27;1.80;;;1.70;;
505;SDS011;551;48.524;9.056;2023-03-12T14:17:16;2.50;;;1.73;;
505;SDS011;551;48.524;9.056;2023-03-12T14:19:47;5.57;;;1.70;;
505;SDS011;551;48.524;9.056;2023-03-12T14:22:19;3.23;;;1.70;;
505;SDS011;551;48.524;9.056;2023-03-12T14:24:49;4.83;;;2.00;;
505;SDS011;551;48.524;9.056;2023-03-12T14:27:20;4.10;;;2.07;;
505;SDS011;551;48.524;9.056;2023-03-12T14:29:51;10.10;;;3.83;;
505;SDS011;551;48.524;9.056;2023-03-12T14:32:22;1.93;;;1.60;;
505;SDS011;551;48.524;9.056;2023-03-12T14:34:57;1.73;;;1.53;;
505;SDS011;551;48.524;9.056;2023-03-12T14:37:52;7.93;;;2.13;;
505;SDS011;551;48.524;9.056;2023-03-12T14:45:53;5.63;;;2.23;;
505;SDS011;551;48.524;9.056;2023-03-12T14:48:25;8.13;;;2.20;;
505;SDS011;551;48.524;9.056;2023-03-12T14:50:53;3.60;;;1.73;;
505;SDS011;551;48.524;9.056;2023-03-12T14:53:24;4.70;;;1.60;;
505;SDS011;551;48.524;9.056;2023-03-12T14:58:48;6.30;;;1.70;;
505;SDS011;551;48.524;9.056;2023-03-12T15:01:31;3.73;;;2.70;;
505;SDS011;551;48.524;9.056;2023-03-12T15:03:59;2.80;;;1.60;;
505;SDS011;551;48.524;9.056;2023-03-12T15:06:32;4.67;;;1.50;;
505;SDS011;551;48.524;9.056;2023-03-12T15:09:01;5.63;;;2.10;;
505;SDS011;551;48.524;9.056;2023-03-12T15:11:28;6.23;;;1.70;;
505;SDS011;551;48.524;9.056;2023-03-12T15:14:00;4.20;;;1.90;;
505;SDS011;551;48.524;9.056;2023-03-12T15:16:28;4.03;;;2.97;;
505;SDS011;551;48.524;9.056;2023-03-12T15:18:53;5.53;;;1.90;;
505;SDS011;551;48.524;9.056;2023-03-12T15:21:20;5.20;;;2.20;;
505;SDS011;551;48.524;9.056;2023-03-12T15:23:46;5.30;;;2.00;;
505;SDS011;551;48.524;9.056;2023-03-12T15:28:57;5.70;;;1.73;;
505;SDS011;551;48.524;9.056;2023-03-12T15:31:24;3.83;;;1.73;;
505;SDS011;551;48.524;9.056;2023-03-12T15:34:01;3.63;;;2.40;;
505;SDS011;551;48.524;9.056;2023-03-12T15:36:28;7.40;;;2.60;;
505;SDS011;551;48.524;9.056;2023-03-12T15:41:26;4.70;;;1.87;;
505;SDS011;551;48.524;9.056;2023-03-12T15:43:59;2.30;;;1.60;;
505;SDS011;551;48.524;9.056;2023-03-12T15:46:25;4.80;;;2.03;;
505;SDS011;551;48.524;9.056;2023-03-12T15:48:52;4.30;;;1.80;;
505;SDS011;551;48.524;9.056;2023-03-12T15:54:03;6.73;;;1.97;;
505;SDS011;551;48.524;9.056;2023-03-12T15:56:38;3.77;;;1.67;;
505;SDS011;551;48.524;9.056;2023-03-12T16:01:45;3.70;;;2.10;;
505;SDS011;551;48.524;9.056;2023-03-12T16:04:16;3.90;;;2.00;;
505;SDS011;551;48.524;9.056;2023-03-12T16:06:43;5.53;;;2.03;;
505;SDS011;551;48.524;9.056;2023-03-12T16:09:13;3.87;;;1.90;;
505;SDS011;551;48.524;9.056;2023-03-12T16:11:44;2.50;;;1.50;;
505;SDS011;551;48.524;9.056;2023-03-12T16:16:39;7.47;;;2.07;;
505;SDS011;551;48.524;9.056;2023-03-12T16:19:11;5.90;;;1.67;;
505;SDS011;551;48.524;9.056;2023-03-12T16:21:38;8.50;;;2.57;;
505;SDS011;551;48.524;9.056;2023-03-12T16:24:06;2.33;;;1.83;;
505;SDS011;551;48.524;9.056;2023-03-12T16:26:33;4.57;;;1.80;;
505;SDS011;551;48.524;9.056;2023-03-12T16:29:00;5.30;;;2.30;;
505;SDS011;551;48.524;9.056;2023-03-12T16:31:26;5.03;;;2.17;;
505;SDS011;551;48.524;9.056;2023-03-12T16:33:51;2.70;;;1.73;;
505;SDS011;551;48.524;9.056;2023-03-12T16:36:17;9.40;;;2.47;;
505;SDS011;551;48.524;9.056;2023-03-12T16:38:43;5.57;;;1.83;;
505;SDS011;551;48.524;9.056;2023-03-12T16:41:10;3.13;;;2.20;;
505;SDS011;551;48.524;9.056;2023-03-12T16:43:47;4.97;;;2.50;;
505;SDS011;551;48.524;9.056;2023-03-12T16:46:15;5.10;;;2.03;;
505;SDS011;551;48.524;9.056;2023-03-12T16:48:43;5.93;;;2.70;;
505;SDS011;551;48.524;9.056;2023-03-12T16:51:14;6.13;;;2.47;;
505;SDS011;551;48.524;9.056;2023-03-12T16:53:40;3.97;;;2.40;;
505;SDS011;551;48.524;9.056;2023-03-12T16:56:09;2.83;;;2.13;;
505;SDS011;551;48.524;9.056;2023-03-12T16:58:42;3.80;;;1.77;;
505;SDS011;551;48.524;9.056;2023-03-12T17:01:12;3.13;;;2.33;;
505;SDS011;551;48.524;9.056;2023-03-12T17:03:40;8.37;;;3.37;;
505;SDS011;551;48.524;9.056;2023-03-12T17:06:11;6.00;;;3.03;;
505;SDS011;551;48.524;9.056;2023-03-12T17:08:39;6.73;;;2.70;;
505;SDS011;551;48.524;9.056;2023-03-12T17:11:11;6.27;;;2.87;;
505;SDS011;551;48.524;9.056;2023-03-12T17:13:45;10.40;;;2.97;;
505;SDS011;551;48.524;9.056;2023-03-12T17:16:15;4.03;;;2.60;;
505;SDS011;551;48.524;9.056;2023-03-12T17:18:41;4.93;;;2.73;;
505;SDS011;551;48.524;9.056;2023-03-12T17:21:14;6.60;;;3.00;;
505;SDS011;551;48.524;9.056;2023-03-12T17:23:41;6.40;;;2.73;;
505;SDS011;551;48.524;9.056;2023-03-12T17:26:07;5.33;;;3.23;;
505;SDS011;551;48.524;9.056;2023-03-12T17:28:33;6.73;;;3.60;;
505;SDS011;551;48.524;9.056;2023-03-12T17:30:59;3.00;;;2.00;;
505;SDS011;551;48.524;9.056;2023-03-12T17:33:25;4.50;;;2.20;;
505;SDS011;551;48.524;9.056;2023-03-12T17:36:01;4.30;;;2.33;;
505;SDS011;551;48.524;9.056;2023-03-12T17:38:28;5.37;;;2.90;;
505;SDS011;551;48.524;9.056;2023-03-12T17:40:54;6.50;;;2.43;;
505;SDS011;551;48.524;9.056;2023-03-12T17:43:21;9.23;;;3.20;;
505;SDS011;551;48.524;9.056;2023-03-12T17:45:47;8.43;;;2.90;;
505;SDS011;551;48.524;9.056;2023-03-12T17:48:12;8.67;;;3.50;;
505;SDS011;551;48.524;9.056;2023-03-12T17:50:38;4.40;;;2.57;;
505;SDS011;551;48.524;9.056;2023-03-12T17:53:05;6.23;;;2.60;;
505;SDS011;551;48.524;9.056;2023-03-12T17:55:30;4.67;;;3.00;;